sensor_id;sensor_type;location;lat;lon;timestamp;temperature;humidity
5200;DHT22;2619;47.868;11.892;2023-09-08T00:02:03;13.10;99.90
5200;DHT22;2619;47.868;11.892;2023-09-08T00:04:28;13.00;99.90
5200;DHT22;2619;47.868;11.892;2023-09-08T00:06:54;13.00;99.90
5200;DHT22;2619;47.868;11.892;2023-09-08T00:09:19;13.00;99.90
5200;DHT22;2619;47.868;11.892;2023-09-08T00:11:45;13.00;99.90
5200;DHT22;2619;47.868;11.892;2023-09-08T00:14:10;13.00;99.90
5200;DHT22;2619;47.868;11.892;2023-09-08T00:16:36;13.00;99.90
5200;DHT22;2619;47.868;11.892;2023-09-08T00:19:02;13.00;99.90
5200;DHT22;2619;47.868;11.892;2023-09-08T00:21:28;13.00;99.90
5200;DHT22;2619;47.868;11.892;2023-09-08T00:23:53;13.10;99.90
5200;DHT22;2619;47.868;11.892;2023-09-08T00:26:20;13.20;99.90
5200;DHT22;2619;47.868;11.892;2023-09-08T00:28:47;13.10;99.90
5200;DHT22;2619;47.868;11.892;2023-09-08T00:31:13;13.30;99.90
5200;DHT22;2619;47.868;11.892;2023-09-08T00:33:38;13.30;99.90
5200;DHT22;2619;47.868;11.892;2023-09-08T00:36:04;13.30;99.90
5200;DHT22;2619;47.868;11.892;2023-09-08T00:38:30;13.20;99.90
5200;DHT22;2619;47.868;11.892;2023-09-08T00:40:55;13.10;99.90
5200;DHT22;2619;47.868;11.892;2023-09-08T00:43:21;13.00;99.90
5200;DHT22;2619;47.868;11.892;2023-09-08T00:45:47;13.00;99.90
5200;DHT22;2619;47.868;11.892;2023-09-08T00:48:13;13.00;99.90
5200;DHT22;2619;47.868;11.892;2023-09-08T00:50:39;12.90;99.90
5200;DHT22;2619;47.868;11.892;2023-09-08T00:53:08;12.90;99.90
5200;DHT22;2619;47.868;11.892;2023-09-08T00:55:34;12.90;99.90
5200;DHT22;2619;47.868;11.892;2023-09-08T00:58:00;12.90;99.90
5200;DHT22;2619;47.868;11.892;2023-09-08T01:00:26;13.00;99.90
5200;DHT22;2619;47.868;11.892;2023-09-08T01:02:52;13.00;99.90
5200;DHT22;2619;47.868;11.892;2023-09-08T01:05:18;12.90;99.90
5200;DHT22;2619;47.868;11.892;2023-09-08T01:07:44;12.90;99.90
5200;DHT22;2619;47.868;11.892;2023-09-08T01:10:10;12.80;99.90
5200;DHT22;2619;47.868;11.892;2023-09-08T01:12:37;12.70;99.90
5200;DHT22;2619;47.868;11.892;2023-09-08T01:15:03;12.70;99.90
5200;DHT22;2619;47.868;11.892;2023-09-08T01:17:32;12.70;99.90
5200;DHT22;2619;47.868;11.892;2023-09-08T01:20:01;12.60;99.90
5200;DHT22;2619;47.868;11.892;2023-09-08T01:25:23;12.50;99.90
5200;DHT22;2619;47.868;11.892;2023-09-08T01:27:53;12.50;99.90
5200;DHT22;2619;47.868;11.892;2023-09-08T01:30:21;12.50;99.90
5200;DHT22;2619;47.868;11.892;2023-09-08T01:32:47;12.40;99.90
5200;DHT22;2619;47.868;11.892;2023-09-08T01:35:13;12.40;99.90
5200;DHT22;2619;47.868;11.892;2023-09-08T01:37:45;12.40;99.90
5200;DHT22;2619;47.868;11.892;2023-09-08T01:40:11;12.30;99.90
5200;DHT22;2619;47.868;11.892;2023-09-08T01:42:37;12.30;99.90
5200;DHT22;2619;47.868;11.892;2023-09-08T01:45:03;12.30;99.90
5200;DHT22;2619;47.868;11.892;2023-09-08T01:47:29;12.30;99.90
5200;DHT22;2619;47.868;11.892;2023-09-08T01:49:55;12.30;99.90
5200;DHT22;2619;47.868;11.892;2023-09-08T01:52:21;12.30;99.90
5200;DHT22;2619;47.868;11.892;2023-09-08T01:54:46;12.20;99.90
5200;DHT22;2619;47.868;11.892;2023-09-08T01:57:12;12.20;99.90
5200;DHT22;2619;47.868;11.892;2023-09-08T01:59:37;12.20;99.90
5200;DHT22;2619;47.868;11.892;2023-09-08T02:02:03;12.10;99.90
5200;DHT22;2619;47.868;11.892;2023-09-08T02:04:29;12.20;99.90
5200;DHT22;2619;47.868;11.892;2023-09-08T02:06:55;12.10;99.90
5200;DHT22;2619;47.868;11.892;2023-09-08T02:09:20;12.10;99.90
5200;DHT22;2619;47.868;11.892;2023-09-08T02:11:46;12.10;99.90
5200;DHT22;2619;47.868;11.892;2023-09-08T02:14:11;12.10;99.90
5200;DHT22;2619;47.868;11.892;2023-09-08T02:16:37;12.10;99.90
5200;DHT22;2619;47.868;11.892;2023-09-08T02:19:02;12.10;99.90
5200;DHT22;2619;47.868;11.892;2023-09-08T02:21:28;12.10;99.90
5200;DHT22;2619;47.868;11.892;2023-09-08T02:23:54;12.10;99.90
5200;DHT22;2619;47.868;11.892;2023-09-08T02:26:19;12.00;99.90
5200;DHT22;2619;47.868;11.892;2023-09-08T02:28:45;12.10;99.90
5200;DHT22;2619;47.868;11.892;2023-09-08T02:31:10;12.00;99.90
5200;DHT22;2619;47.868;11.892;2023-09-08T02:33:36;12.00;99.90
5200;DHT22;2619;47.868;11.892;2023-09-08T02:36:05;12.00;99.90
5200;DHT22;2619;47.868;11.892;2023-09-08T02:38:32;12.00;99.90
5200;DHT22;2619;47.868;11.892;2023-09-08T02:40:57;12.00;99.90
5200;DHT22;2619;47.868;11.892;2023-09-08T02:43:23;12.00;99.90
5200;DHT22;2619;47.868;11.892;2023-09-08T02:45:49;11.90;99.90
5200;DHT22;2619;47.868;11.892;2023-09-08T02:48:15;11.90;99.90
5200;DHT22;2619;47.868;11.892;2023-09-08T02:50:42;11.90;99.90
5200;DHT22;2619;47.868;11.892;2023-09-08T02:53:07;11.90;99.90
5200;DHT22;2619;47.868;11.892;2023-09-08T02:55:33;12.00;99.90
5200;DHT22;2619;47.868;11.892;2023-09-08T02:57:59;12.00;99.90
5200;DHT22;2619;47.868;11.892;2023-09-08T03:00:25;12.00;99.90
5200;DHT22;2619;47.868;11.892;2023-09-08T03:02:50;12.10;99.90
5200;DHT22;2619;47.868;11.892;2023-09-08T03:05:16;12.10;99.90
5200;DHT22;2619;47.868;11.892;2023-09-08T03:07:42;12.10;99.90
5200;DHT22;2619;47.868;11.892;2023-09-08T03:10:07;12.00;99.90
5200;DHT22;2619;47.868;11.892;2023-09-08T03:12:33;12.10;99.90
5200;DHT22;2619;47.868;11.892;2023-09-08T03:15:01;12.10;99.90
5200;DHT22;2619;47.868;11.892;2023-09-08T03:17:27;12.10;99.90
5200;DHT22;2619;47.868;11.892;2023-09-08T03:19:53;12.10;99.90
5200;DHT22;2619;47.868;11.892;2023-09-08T03:22:18;12.30;99.90
5200;DHT22;2619;47.868;11.892;2023-09-08T03:24:44;12.30;99.90
5200;DHT22;2619;47.868;11.892;2023-09-08T03:27:09;12.30;99.90
5200;DHT22;2619;47.868;11.892;2023-09-08T03:29:35;12.30;99.90
5200;DHT22;2619;47.868;11.892;2023-09-08T03:32:01;12.20;99.90
5200;DHT22;2619;47.868;11.892;2023-09-08T03:34:26;12.30;99.90
5200;DHT22;2619;47.868;11.892;2023-09-08T03:36:54;12.10;99.90
5200;DHT22;2619;47.868;11.892;2023-09-08T03:39:19;12.10;99.90
5200;DHT22;2619;47.868;11.892;2023-09-08T03:41:45;12.00;99.90
5200;DHT22;2619;47.868;11.892;2023-09-08T03:44:11;12.10;99.90
5200;DHT22;2619;47.868;11.892;2023-09-08T03:46:37;12.00;99.90
5200;DHT22;2619;47.868;11.892;2023-09-08T03:49:02;12.00;99.90
5200;DHT22;2619;47.868;11.892;2023-09-08T03:51:28;12.00;99.90
5200;DHT22;2619;47.868;11.892;2023-09-08T03:53:54;12.00;99.90
5200;DHT22;2619;47.868;11.892;2023-09-08T03:56:19;11.90;99.90
5200;DHT22;2619;47.868;11.892;2023-09-08T03:58:48;11.90;99.90
5200;DHT22;2619;47.868;11.892;2023-09-08T04:01:14;11.90;99.90
5200;DHT22;2619;47.868;11.892;2023-09-08T04:03:39;11.90;99.90
5200;DHT22;2619;47.868;11.892;2023-09-08T04:06:05;11.90;99.90
5200;DHT22;2619;47.868;11.892;2023-09-08T04:08:30;11.90;99.90
5200;DHT22;2619;47.868;11.892;2023-09-08T04:10:56;11.80;99.90
5200;DHT22;2619;47.868;11.892;2023-09-08T04:13:21;11.80;99.90
5200;DHT22;2619;47.868;11.892;2023-09-08T04:15:47;11.80;99.90
5200;DHT22;2619;47.868;11.892;2023-09-08T04:18:14;11.80;99.90
5200;DHT22;2619;47.868;11.892;2023-09-08T04:20:39;11.80;99.90
5200;DHT22;2619;47.868;11.892;2023-09-08T04:23:05;11.80;99.90
5200;DHT22;2619;47.868;11.892;2023-09-08T04:25:30;11.70;99.90
5200;DHT22;2619;47.868;11.892;2023-09-08T04:27:56;11.70;99.90
5200;DHT22;2619;47.868;11.892;2023-09-08T04:30:22;11.60;99.90
5200;DHT22;2619;47.868;11.892;2023-09-08T04:32:47;11.60;99.90
5200;DHT22;2619;47.868;11.892;2023-09-08T04:35:13;11.60;99.90
5200;DHT22;2619;47.868;11.892;2023-09-08T04:37:38;11.60;99.90
5200;DHT22;2619;47.868;11.892;2023-09-08T04:40:05;11.60;99.90
5200;DHT22;2619;47.868;11.892;2023-09-08T04:42:31;11.60;99.90
5200;DHT22;2619;47.868;11.892;2023-09-08T04:44:56;11.60;99.90
5200;DHT22;2619;47.868;11.892;2023-09-08T04:47:22;11.60;99.90
5200;DHT22;2619;47.868;11.892;2023-09-08T04:49:47;11.60;99.90
5200;DHT22;2619;47.868;11.892;2023-09-08T04:52:13;11.60;99.90
5200;DHT22;2619;47.868;11.892;2023-09-08T04:54:40;11.60;99.90
5200;DHT22;2619;47.868;11.892;2023-09-08T04:57:05;11.60;99.90
5200;DHT22;2619;47.868;11.892;2023-09-08T04:59:31;11.60;99.90
5200;DHT22;2619;47.868;11.892;2023-09-08T05:01:58;11.70;99.90
5200;DHT22;2619;47.868;11.892;2023-09-08T05:04:23;11.70;99.90
5200;DHT22;2619;47.868;11.892;2023-09-08T05:06:49;11.80;99.90
5200;DHT22;2619;47.868;11.892;2023-09-08T05:09:14;11.80;99.90
5200;DHT22;2619;47.868;11.892;2023-09-08T05:11:40;11.90;99.90
5200;DHT22;2619;47.868;11.892;2023-09-08T05:14:06;12.00;99.90
5200;DHT22;2619;47.868;11.892;2023-09-08T05:16:31;12.00;99.90
5200;DHT22;2619;47.868;11.892;2023-09-08T05:19:26;12.10;99.90
5200;DHT22;2619;47.868;11.892;2023-09-08T05:21:54;12.20;99.90
5200;DHT22;2619;47.868;11.892;2023-09-08T05:24:20;12.30;99.90
5200;DHT22;2619;47.868;11.892;2023-09-08T05:26:46;12.50;99.90
5200;DHT22;2619;47.868;11.892;2023-09-08T05:29:12;12.60;99.90
5200;DHT22;2619;47.868;11.892;2023-09-08T05:31:38;12.90;99.90
5200;DHT22;2619;47.868;11.892;2023-09-08T05:34:04;13.20;99.90
5200;DHT22;2619;47.868;11.892;2023-09-08T05:36:29;13.50;99.90
5200;DHT22;2619;47.868;11.892;2023-09-08T05:38:56;13.70;99.90
5200;DHT22;2619;47.868;11.892;2023-09-08T05:41:22;13.90;99.90
5200;DHT22;2619;47.868;11.892;2023-09-08T05:43:47;14.10;99.90
5200;DHT22;2619;47.868;11.892;2023-09-08T05:46:13;14.20;99.90
5200;DHT22;2619;47.868;11.892;2023-09-08T05:48:39;14.50;99.90
5200;DHT22;2619;47.868;11.892;2023-09-08T05:51:05;14.70;99.90
5200;DHT22;2619;47.868;11.892;2023-09-08T05:53:32;14.90;99.90
5200;DHT22;2619;47.868;11.892;2023-09-08T05:55:58;15.40;99.90
5200;DHT22;2619;47.868;11.892;2023-09-08T05:58:24;16.00;99.90
5200;DHT22;2619;47.868;11.892;2023-09-08T06:00:55;16.50;99.90
5200;DHT22;2619;47.868;11.892;2023-09-08T06:03:21;17.10;99.90
5200;DHT22;2619;47.868;11.892;2023-09-08T06:05:46;17.50;99.90
5200;DHT22;2619;47.868;11.892;2023-09-08T06:08:12;17.90;99.90
5200;DHT22;2619;47.868;11.892;2023-09-08T06:10:38;18.40;99.90
5200;DHT22;2619;47.868;11.892;2023-09-08T06:13:04;18.60;99.90
5200;DHT22;2619;47.868;11.892;2023-09-08T06:15:29;18.90;99.90
5200;DHT22;2619;47.868;11.892;2023-09-08T06:17:55;18.90;99.90
5200;DHT22;2619;47.868;11.892;2023-09-08T06:20:21;18.90;99.90
5200;DHT22;2619;47.868;11.892;2023-09-08T06:22:47;19.00;99.90
5200;DHT22;2619;47.868;11.892;2023-09-08T06:25:12;19.20;99.90
5200;DHT22;2619;47.868;11.892;2023-09-08T06:27:38;19.40;99.90
5200;DHT22;2619;47.868;11.892;2023-09-08T06:30:04;19.40;99.90
5200;DHT22;2619;47.868;11.892;2023-09-08T06:32:30;19.20;99.90
5200;DHT22;2619;47.868;11.892;2023-09-08T06:34:56;19.30;99.90
5200;DHT22;2619;47.868;11.892;2023-09-08T06:37:21;19.20;99.90
5200;DHT22;2619;47.868;11.892;2023-09-08T06:39:47;19.20;99.90
5200;DHT22;2619;47.868;11.892;2023-09-08T06:42:12;19.20;99.90
5200;DHT22;2619;47.868;11.892;2023-09-08T06:44:38;19.10;99.90
5200;DHT22;2619;47.868;11.892;2023-09-08T06:47:04;19.00;99.90
5200;DHT22;2619;47.868;11.892;2023-09-08T06:49:32;18.90;99.90
5200;DHT22;2619;47.868;11.892;2023-09-08T06:51:58;18.60;99.90
5200;DHT22;2619;47.868;11.892;2023-09-08T06:54:23;18.40;99.90
5200;DHT22;2619;47.868;11.892;2023-09-08T06:56:49;18.20;99.90
5200;DHT22;2619;47.868;11.892;2023-09-08T06:59:14;18.20;99.90
5200;DHT22;2619;47.868;11.892;2023-09-08T07:01:40;18.30;99.90
5200;DHT22;2619;47.868;11.892;2023-09-08T07:04:06;18.40;99.90
5200;DHT22;2619;47.868;11.892;2023-09-08T07:06:31;18.50;99.90
5200;DHT22;2619;47.868;11.892;2023-09-08T07:08:57;18.50;99.90
5200;DHT22;2619;47.868;11.892;2023-09-08T07:11:22;18.60;99.90
5200;DHT22;2619;47.868;11.892;2023-09-08T07:13:48;18.80;99.90
5200;DHT22;2619;47.868;11.892;2023-09-08T07:16:14;18.90;99.90
5200;DHT22;2619;47.868;11.892;2023-09-08T07:18:39;18.90;99.90
5200;DHT22;2619;47.868;11.892;2023-09-08T07:21:05;19.10;99.90
5200;DHT22;2619;47.868;11.892;2023-09-08T07:23:31;19.30;99.90
5200;DHT22;2619;47.868;11.892;2023-09-08T07:25:56;19.40;99.90
5200;DHT22;2619;47.868;11.892;2023-09-08T07:28:22;19.50;99.90
5200;DHT22;2619;47.868;11.892;2023-09-08T07:30:47;19.30;99.90
5200;DHT22;2619;47.868;11.892;2023-09-08T07:33:13;19.50;99.90
5200;DHT22;2619;47.868;11.892;2023-09-08T07:35:39;19.60;99.90
5200;DHT22;2619;47.868;11.892;2023-09-08T07:38:06;19.60;99.90
5200;DHT22;2619;47.868;11.892;2023-09-08T07:40:33;19.70;99.90
5200;DHT22;2619;47.868;11.892;2023-09-08T07:42:59;19.80;99.90
5200;DHT22;2619;47.868;11.892;2023-09-08T07:45:24;19.90;99.90
5200;DHT22;2619;47.868;11.892;2023-09-08T07:47:51;20.00;99.90
5200;DHT22;2619;47.868;11.892;2023-09-08T07:50:25;20.20;99.90
5200;DHT22;2619;47.868;11.892;2023-09-08T07:52:53;20.30;99.90
5200;DHT22;2619;47.868;11.892;2023-09-08T07:55:20;20.40;99.90
5200;DHT22;2619;47.868;11.892;2023-09-08T07:57:49;20.40;99.90
5200;DHT22;2619;47.868;11.892;2023-09-08T08:00:16;20.30;99.90
5200;DHT22;2619;47.868;11.892;2023-09-08T08:02:45;20.20;99.90
5200;DHT22;2619;47.868;11.892;2023-09-08T08:05:11;20.40;99.90
5200;DHT22;2619;47.868;11.892;2023-09-08T08:07:38;20.70;99.90
5200;DHT22;2619;47.868;11.892;2023-09-08T08:10:04;20.90;99.90
5200;DHT22;2619;47.868;11.892;2023-09-08T08:12:30;21.00;99.90
5200;DHT22;2619;47.868;11.892;2023-09-08T08:14:56;21.10;99.90
5200;DHT22;2619;47.868;11.892;2023-09-08T08:17:21;21.20;99.90
5200;DHT22;2619;47.868;11.892;2023-09-08T08:19:47;21.30;99.90
5200;DHT22;2619;47.868;11.892;2023-09-08T08:22:13;21.50;99.90
5200;DHT22;2619;47.868;11.892;2023-09-08T08:24:38;21.60;99.90
5200;DHT22;2619;47.868;11.892;2023-09-08T08:27:04;21.80;99.90
5200;DHT22;2619;47.868;11.892;2023-09-08T08:29:30;21.90;99.90
5200;DHT22;2619;47.868;11.892;2023-09-08T08:31:56;22.10;99.90
5200;DHT22;2619;47.868;11.892;2023-09-08T08:34:21;22.20;99.90
5200;DHT22;2619;47.868;11.892;2023-09-08T08:36:47;22.20;99.90
5200;DHT22;2619;47.868;11.892;2023-09-08T08:39:13;22.20;99.90
5200;DHT22;2619;47.868;11.892;2023-09-08T08:41:40;22.50;99.90
5200;DHT22;2619;47.868;11.892;2023-09-08T08:44:07;22.60;99.90
5200;DHT22;2619;47.868;11.892;2023-09-08T08:46:35;22.90;99.90
5200;DHT22;2619;47.868;11.892;2023-09-08T08:49:03;22.80;99.90
5200;DHT22;2619;47.868;11.892;2023-09-08T08:51:30;23.00;99.90
5200;DHT22;2619;47.868;11.892;2023-09-08T08:53:56;23.10;99.90
5200;DHT22;2619;47.868;11.892;2023-09-08T08:56:22;23.10;99.90
5200;DHT22;2619;47.868;11.892;2023-09-08T08:58:49;23.10;99.90
5200;DHT22;2619;47.868;11.892;2023-09-08T09:01:18;23.30;99.90
5200;DHT22;2619;47.868;11.892;2023-09-08T09:03:49;23.50;99.90
5200;DHT22;2619;47.868;11.892;2023-09-08T09:06:15;23.70;99.90
5200;DHT22;2619;47.868;11.892;2023-09-08T09:08:43;23.80;99.90
5200;DHT22;2619;47.868;11.892;2023-09-08T09:11:09;23.70;99.90
5200;DHT22;2619;47.868;11.892;2023-09-08T09:13:35;23.70;99.90
5200;DHT22;2619;47.868;11.892;2023-09-08T09:16:01;23.70;99.90
5200;DHT22;2619;47.868;11.892;2023-09-08T09:18:31;23.80;99.90
5200;DHT22;2619;47.868;11.892;2023-09-08T09:20:59;24.00;99.90
5200;DHT22;2619;47.868;11.892;2023-09-08T09:25:54;24.20;99.90
5200;DHT22;2619;47.868;11.892;2023-09-08T09:28:20;24.10;99.90
5200;DHT22;2619;47.868;11.892;2023-09-08T09:30:48;24.20;99.90
5200;DHT22;2619;47.868;11.892;2023-09-08T09:33:14;24.40;99.90
5200;DHT22;2619;47.868;11.892;2023-09-08T09:35:44;24.60;99.90
5200;DHT22;2619;47.868;11.892;2023-09-08T09:38:10;24.90;99.90
5200;DHT22;2619;47.868;11.892;2023-09-08T09:40:37;24.90;99.90
5200;DHT22;2619;47.868;11.892;2023-09-08T09:43:04;24.70;99.90
5200;DHT22;2619;47.868;11.892;2023-09-08T09:45:30;24.80;99.90
5200;DHT22;2619;47.868;11.892;2023-09-08T09:47:56;25.00;99.90
5200;DHT22;2619;47.868;11.892;2023-09-08T09:50:36;24.90;99.90
5200;DHT22;2619;47.868;11.892;2023-09-08T09:53:08;25.00;99.90
5200;DHT22;2619;47.868;11.892;2023-09-08T09:55:35;25.20;99.90
5200;DHT22;2619;47.868;11.892;2023-09-08T09:58:03;25.20;99.90
5200;DHT22;2619;47.868;11.892;2023-09-08T10:00:30;25.30;99.90
5200;DHT22;2619;47.868;11.892;2023-09-08T10:02:58;25.30;99.90
5200;DHT22;2619;47.868;11.892;2023-09-08T10:05:24;25.30;99.90
5200;DHT22;2619;47.868;11.892;2023-09-08T10:07:51;25.40;99.90
5200;DHT22;2619;47.868;11.892;2023-09-08T10:10:17;25.60;99.90
5200;DHT22;2619;47.868;11.892;2023-09-08T10:12:44;25.50;99.90
5200;DHT22;2619;47.868;11.892;2023-09-08T10:15:11;25.50;99.90
5200;DHT22;2619;47.868;11.892;2023-09-08T10:17:37;25.60;99.90
5200;DHT22;2619;47.868;11.892;2023-09-08T10:20:05;25.70;99.90
5200;DHT22;2619;47.868;11.892;2023-09-08T10:22:38;25.90;99.90
5200;DHT22;2619;47.868;11.892;2023-09-08T10:25:08;26.10;99.90
5200;DHT22;2619;47.868;11.892;2023-09-08T10:27:34;26.20;99.90
5200;DHT22;2619;47.868;11.892;2023-09-08T10:30:02;26.10;99.90
5200;DHT22;2619;47.868;11.892;2023-09-08T10:32:35;26.20;99.90
5200;DHT22;2619;47.868;11.892;2023-09-08T10:35:06;26.30;99.90
5200;DHT22;2619;47.868;11.892;2023-09-08T10:37:32;26.30;99.90
5200;DHT22;2619;47.868;11.892;2023-09-08T10:40:21;26.30;99.90
5200;DHT22;2619;47.868;11.892;2023-09-08T10:42:47;26.30;99.90
5200;DHT22;2619;47.868;11.892;2023-09-08T10:45:19;26.40;99.90
5200;DHT22;2619;47.868;11.892;2023-09-08T10:50:30;26.50;99.90
5200;DHT22;2619;47.868;11.892;2023-09-08T10:55:37;26.80;99.90
5200;DHT22;2619;47.868;11.892;2023-09-08T10:58:04;26.90;99.90
5200;DHT22;2619;47.868;11.892;2023-09-08T11:00:46;26.90;99.90
5200;DHT22;2619;47.868;11.892;2023-09-08T11:03:12;27.00;99.90
5200;DHT22;2619;47.868;11.892;2023-09-08T11:05:39;27.00;99.90
5200;DHT22;2619;47.868;11.892;2023-09-08T11:08:05;27.20;99.90
5200;DHT22;2619;47.868;11.892;2023-09-08T11:10:30;27.20;99.90
5200;DHT22;2619;47.868;11.892;2023-09-08T11:12:57;27.40;99.90
5200;DHT22;2619;47.868;11.892;2023-09-08T11:15:25;27.40;99.90
5200;DHT22;2619;47.868;11.892;2023-09-08T11:17:50;27.60;99.90
5200;DHT22;2619;47.868;11.892;2023-09-08T11:20:26;27.70;99.90
5200;DHT22;2619;47.868;11.892;2023-09-08T11:22:52;27.80;99.90
5200;DHT22;2619;47.868;11.892;2023-09-08T11:25:18;27.70;99.90
5200;DHT22;2619;47.868;11.892;2023-09-08T11:27:45;27.70;99.90
5200;DHT22;2619;47.868;11.892;2023-09-08T11:30:12;27.60;99.90
5200;DHT22;2619;47.868;11.892;2023-09-08T11:32:38;27.70;99.90
5200;DHT22;2619;47.868;11.892;2023-09-08T11:35:05;27.80;99.90
5200;DHT22;2619;47.868;11.892;2023-09-08T11:37:36;28.00;99.90
5200;DHT22;2619;47.868;11.892;2023-09-08T11:40:02;28.20;99.90
5200;DHT22;2619;47.868;11.892;2023-09-08T11:42:28;28.20;99.90
5200;DHT22;2619;47.868;11.892;2023-09-08T11:44:57;28.30;99.90
5200;DHT22;2619;47.868;11.892;2023-09-08T11:47:23;28.40;99.90
5200;DHT22;2619;47.868;11.892;2023-09-08T11:49:48;28.40;99.90
5200;DHT22;2619;47.868;11.892;2023-09-08T11:52:17;28.40;99.90
5200;DHT22;2619;47.868;11.892;2023-09-08T11:54:43;28.30;99.90
5200;DHT22;2619;47.868;11.892;2023-09-08T11:57:09;28.40;99.90
5200;DHT22;2619;47.868;11.892;2023-09-08T11:59:37;28.40;99.90
5200;DHT22;2619;47.868;11.892;2023-09-08T12:02:03;28.10;99.90
5200;DHT22;2619;47.868;11.892;2023-09-08T12:04:29;28.20;99.90
5200;DHT22;2619;47.868;11.892;2023-09-08T12:06:54;28.30;99.90
5200;DHT22;2619;47.868;11.892;2023-09-08T12:09:23;28.40;99.90
5200;DHT22;2619;47.868;11.892;2023-09-08T12:11:49;28.40;99.90
5200;DHT22;2619;47.868;11.892;2023-09-08T12:14:15;28.30;99.90
5200;DHT22;2619;47.868;11.892;2023-09-08T12:16:42;28.40;99.90
5200;DHT22;2619;47.868;11.892;2023-09-08T12:19:08;28.50;99.90
5200;DHT22;2619;47.868;11.892;2023-09-08T12:21:54;28.60;99.90
5200;DHT22;2619;47.868;11.892;2023-09-08T12:27:18;28.70;99.90
5200;DHT22;2619;47.868;11.892;2023-09-08T12:29:59;28.80;99.90
5200;DHT22;2619;47.868;11.892;2023-09-08T12:32:28;28.80;99.90
5200;DHT22;2619;47.868;11.892;2023-09-08T12:34:55;28.70;99.90
5200;DHT22;2619;47.868;11.892;2023-09-08T12:37:25;28.70;99.90
5200;DHT22;2619;47.868;11.892;2023-09-08T12:39:53;28.50;99.90
5200;DHT22;2619;47.868;11.892;2023-09-08T12:42:20;28.60;99.90
5200;DHT22;2619;47.868;11.892;2023-09-08T12:44:46;28.40;99.90
5200;DHT22;2619;47.868;11.892;2023-09-08T12:47:12;28.40;99.90
5200;DHT22;2619;47.868;11.892;2023-09-08T12:49:38;28.40;99.90
5200;DHT22;2619;47.868;11.892;2023-09-08T12:52:04;28.40;99.90
5200;DHT22;2619;47.868;11.892;2023-09-08T12:54:30;28.20;99.90
5200;DHT22;2619;47.868;11.892;2023-09-08T12:56:55;28.40;99.90
5200;DHT22;2619;47.868;11.892;2023-09-08T12:59:21;28.30;99.90
5200;DHT22;2619;47.868;11.892;2023-09-08T13:01:47;28.20;99.90
5200;DHT22;2619;47.868;11.892;2023-09-08T13:04:12;28.30;99.90
5200;DHT22;2619;47.868;11.892;2023-09-08T13:06:38;28.30;99.90
5200;DHT22;2619;47.868;11.892;2023-09-08T13:09:03;28.30;99.90
5200;DHT22;2619;47.868;11.892;2023-09-08T13:11:30;28.40;99.90
5200;DHT22;2619;47.868;11.892;2023-09-08T13:13:56;28.40;99.90
5200;DHT22;2619;47.868;11.892;2023-09-08T13:16:21;28.50;99.90
5200;DHT22;2619;47.868;11.892;2023-09-08T13:18:47;28.60;99.90
5200;DHT22;2619;47.868;11.892;2023-09-08T13:21:14;28.70;99.90
5200;DHT22;2619;47.868;11.892;2023-09-08T13:23:40;28.80;99.90
5200;DHT22;2619;47.868;11.892;2023-09-08T13:26:05;28.90;99.90
5200;DHT22;2619;47.868;11.892;2023-09-08T13:28:31;29.00;99.90
5200;DHT22;2619;47.868;11.892;2023-09-08T13:30:56;28.70;99.90
5200;DHT22;2619;47.868;11.892;2023-09-08T13:33:22;28.60;99.90
5200;DHT22;2619;47.868;11.892;2023-09-08T13:35:48;28.40;99.90
5200;DHT22;2619;47.868;11.892;2023-09-08T13:38:13;28.20;99.90
5200;DHT22;2619;47.868;11.892;2023-09-08T13:40:39;28.10;99.90
5200;DHT22;2619;47.868;11.892;2023-09-08T13:43:06;28.10;99.90
5200;DHT22;2619;47.868;11.892;2023-09-08T13:45:32;28.40;99.90
5200;DHT22;2619;47.868;11.892;2023-09-08T13:47:58;28.40;99.90
5200;DHT22;2619;47.868;11.892;2023-09-08T13:50:23;28.40;99.90
5200;DHT22;2619;47.868;11.892;2023-09-08T13:52:49;28.50;99.90
5200;DHT22;2619;47.868;11.892;2023-09-08T13:55:15;28.60;99.90
5200;DHT22;2619;47.868;11.892;2023-09-08T13:57:40;28.70;99.90
5200;DHT22;2619;47.868;11.892;2023-09-08T14:00:06;28.70;99.90
5200;DHT22;2619;47.868;11.892;2023-09-08T14:02:34;28.40;99.90
5200;DHT22;2619;47.868;11.892;2023-09-08T14:04:59;28.40;99.90
5200;DHT22;2619;47.868;11.892;2023-09-08T14:07:25;28.40;99.90
5200;DHT22;2619;47.868;11.892;2023-09-08T14:09:51;28.30;99.90
5200;DHT22;2619;47.868;11.892;2023-09-08T14:12:16;28.00;99.90
5200;DHT22;2619;47.868;11.892;2023-09-08T14:14:42;28.00;99.90
5200;DHT22;2619;47.868;11.892;2023-09-08T14:17:07;28.20;99.90
5200;DHT22;2619;47.868;11.892;2023-09-08T14:19:33;28.10;99.90
5200;DHT22;2619;47.868;11.892;2023-09-08T14:21:58;28.10;99.90
5200;DHT22;2619;47.868;11.892;2023-09-08T14:24:24;28.20;99.90
5200;DHT22;2619;47.868;11.892;2023-09-08T14:26:49;28.00;99.90
5200;DHT22;2619;47.868;11.892;2023-09-08T14:29:16;27.90;99.90
5200;DHT22;2619;47.868;11.892;2023-09-08T14:31:42;27.60;99.90
5200;DHT22;2619;47.868;11.892;2023-09-08T14:34:09;27.50;99.90
5200;DHT22;2619;47.868;11.892;2023-09-08T14:36:34;27.30;99.90
5200;DHT22;2619;47.868;11.892;2023-09-08T14:39:00;27.30;99.90
5200;DHT22;2619;47.868;11.892;2023-09-08T14:41:26;27.30;99.90
5200;DHT22;2619;47.868;11.892;2023-09-08T14:43:51;27.30;99.90
5200;DHT22;2619;47.868;11.892;2023-09-08T14:46:17;27.30;99.90
5200;DHT22;2619;47.868;11.892;2023-09-08T14:48:43;27.30;99.90
5200;DHT22;2619;47.868;11.892;2023-09-08T14:51:08;27.10;99.90
5200;DHT22;2619;47.868;11.892;2023-09-08T14:53:34;27.00;99.90
5200;DHT22;2619;47.868;11.892;2023-09-08T14:56:00;27.00;99.90
5200;DHT22;2619;47.868;11.892;2023-09-08T14:58:25;27.00;99.90
5200;DHT22;2619;47.868;11.892;2023-09-08T15:00:57;27.00;99.90
5200;DHT22;2619;47.868;11.892;2023-09-08T15:03:23;26.90;99.90
5200;DHT22;2619;47.868;11.892;2023-09-08T15:05:48;26.80;99.90
5200;DHT22;2619;47.868;11.892;2023-09-08T15:08:14;26.70;99.90
5200;DHT22;2619;47.868;11.892;2023-09-08T15:10:39;26.60;99.90
5200;DHT22;2619;47.868;11.892;2023-09-08T15:13:05;26.50;99.90
5200;DHT22;2619;47.868;11.892;2023-09-08T15:15:31;26.40;99.90
5200;DHT22;2619;47.868;11.892;2023-09-08T15:17:56;26.30;99.90
5200;DHT22;2619;47.868;11.892;2023-09-08T15:20:22;26.40;99.90
5200;DHT22;2619;47.868;11.892;2023-09-08T15:22:48;26.40;99.90
5200;DHT22;2619;47.868;11.892;2023-09-08T15:25:14;26.40;99.90
5200;DHT22;2619;47.868;11.892;2023-09-08T15:27:40;26.30;99.90
5200;DHT22;2619;47.868;11.892;2023-09-08T15:30:06;26.20;99.90
5200;DHT22;2619;47.868;11.892;2023-09-08T15:32:32;26.20;99.90
5200;DHT22;2619;47.868;11.892;2023-09-08T15:34:57;26.10;99.90
5200;DHT22;2619;47.868;11.892;2023-09-08T15:37:23;26.00;99.90
5200;DHT22;2619;47.868;11.892;2023-09-08T15:39:48;26.00;99.90
5200;DHT22;2619;47.868;11.892;2023-09-08T15:42:14;26.00;99.90
5200;DHT22;2619;47.868;11.892;2023-09-08T15:44:40;26.00;99.90
5200;DHT22;2619;47.868;11.892;2023-09-08T15:47:05;25.90;99.90
5200;DHT22;2619;47.868;11.892;2023-09-08T15:49:31;25.90;99.90
5200;DHT22;2619;47.868;11.892;2023-09-08T15:51:56;25.80;99.90
5200;DHT22;2619;47.868;11.892;2023-09-08T15:54:22;25.70;99.90